Latest Coastal Weather Observations for Orbost

IDV60701

Issued at 1:32 pm EST Monday 26 June 2017 (issued every 10 minutes, with the page automatically refreshed every 10 minutes)

About coastal observations | Map of coastal stations | Coastal observations for VIC | Marine services | Other Formats
Station Details ID: 084145 Name: ORBOST Lat: -37.69 Lon: 148.47 Height: 62.65 m
Data from the previous 72 hours. | See also: Recent months at Orbost
Date/Time
EST
Temp
°C
Wind Pressure Rain since
9am
mm
Weather Cloud Vis
km
Sea
Height
m
Swell
Dir  Spd
kts
Gust
kts
hPa Trend Height
m
Period
s
Dir
26/01:30pm 12.1 WNW 7 12 1022.7 - 0.0 - - - - - - -
26/01:00pm 12.0 WNW 8 12 1022.8 - 0.0 - - - - - - -
26/12:30pm 12.2 WNW 10 16 1022.7 - 0.0 - - - - - - -
26/12:00pm 12.0 W 7 12 1022.9 - 0.0 - - - - - - -
26/11:30am 11.6 WNW 9 17 1023.1 - 0.0 - - - - - - -
26/11:00am 11.6 W 9 15 1023.2 - 0.0 - - - - - - -
26/10:30am 11.7 WNW 6 10 1022.9 - 0.0 - - - - - - -
26/10:00am 11.0 WNW 5 9 1022.8 - 0.0 - - - - - - -
26/09:30am 10.6 WNW 6 9 1022.3 - 0.0 - - - - - - -
26/09:00am 10.1 NW 5 8 1021.9 - 0.2 - - - - - - -
26/08:30am 9.7 WNW 4 7 1021.4 - 0.2 - - - - - - -
26/08:00am 9.5 WNW 4 7 1021.0 - 0.2 - - - - - - -
26/07:30am 9.2 NW 3 5 1020.4 - 0.2 - - - - - - -
26/07:00am 9.3 WNW 4 7 1020.0 - 0.2 - - - - - - -
26/06:30am 9.3 NW 4 6 1019.5 - 0.2 - - - - - - -
26/06:00am 9.0 WNW 4 6 1019.1 - 0.2 - - - - - - -
26/05:30am 8.8 NNW 3 4 1018.8 - 0.2 - - - - - - -
26/05:00am 8.3 N 2 3 1018.7 - 0.2 - - - - - - -
26/04:30am 7.8 NW 3 4 1018.3 - 0.2 - - - - - - -
26/04:00am 8.5 NW 3 4 1018.4 - 0.2 - - - - - - -
26/03:30am 9.6 WNW 4 7 1017.9 - 0.2 - - - - - - -
26/03:00am 10.0 NW 5 9 1017.8 - 0.2 - - - - - - -
26/02:30am 10.9 WNW 6 9 1017.7 - 0.2 - - - - - - -
26/02:00am 11.0 W 5 9 1017.6 - 0.2 - - - - - - -
26/01:30am 11.6 NW 6 11 1016.9 - 0.2 - - - - - - -
26/01:00am 11.6 NW 5 9 1016.7 - 0.2 - - - - - - -
26/12:30am 10.8 NW 4 5 1016.5 - 0.2 - - - - - - -
26/12:00am 11.3 WNW 4 6 1016.7 - 0.2 - - - - - - -
 
Date/Time
EST
Temp
°C
Wind Pressure Rain since
9am
mm
Weather Cloud Vis
km
Sea
Height
m
Swell
Dir  Spd
kts
Gust
kts
hPa Trend Height
m
Period
s
Dir
25/11:30pm 11.3 NW 6 9 1016.5 - 0.2 - - - - - - -
25/11:00pm 11.5 NW 10 18 1016.3 - 0.2 - - - - - - -
25/10:30pm 11.5 NNW 10 15 1015.9 - 0.2 - - - - - - -
25/10:00pm 11.3 NNW 9 14 1016.1 - 0.2 - - - - - - -
25/09:30pm 11.4 NNW 9 14 1015.6 - 0.2 - - - - - - -
25/09:00pm 10.7 NW 6 11 1015.5 - 0.2 - - - - - - -
25/08:30pm 10.3 NW 5 9 1015.4 - 0.2 - - - - - - -
25/08:00pm 10.2 NW 6 8 1015.3 - 0.2 - - - - - - -
25/07:30pm 10.7 NW 7 10 1015.0 - 0.2 - - - - - - -
25/07:00pm 11.2 NW 8 12 1014.8 - 0.2 - - - - - - -
25/06:30pm 11.8 NW 9 16 1014.3 - 0.2 - - - - - - -
25/06:00pm 11.9 WNW 7 12 1014.0 - 0.2 - - - - - - -
25/05:30pm 10.5 NW 3 5 1013.7 - 0.2 - - - - - - -
25/05:00pm 11.7 NW 3 4 1013.3 - 0.2 - - - - - - -
25/04:30pm 13.1 W 7 10 1013.2 - 0.2 - - - - - - -
25/04:00pm 14.3 W 6 11 1013.0 - 0.2 - - - - - - -
25/03:30pm 14.9 WNW 5 9 1013.0 - 0.2 - - - - - - -
25/03:00pm 15.0 W 8 13 1013.1 - 0.2 - - - - - - -
25/02:30pm 15.0 W 10 14 1013.2 - 0.2 - - - - - - -
25/02:00pm 14.4 W 4 8 1013.3 - 0.2 - - - - - - -
25/01:30pm 14.4 NW 6 9 1013.5 - 0.2 - - - - - - -
25/01:00pm 13.5 NW 7 11 1013.9 - 0.2 - - - - - - -
25/12:30pm 12.8 NNW 6 9 1014.3 - 0.2 - - - - - - -
25/12:00pm 11.9 NW 7 12 1014.9 - 0.2 Recent precip. - - - - - -
25/11:30am 12.2 NW 6 9 1015.5 - 0.2 - - - - - - -
25/11:00am 11.6 NNW 6 11 1016.3 - 0.0 - - - - - - -
25/10:30am 10.9 NNW 6 9 1016.7 - 0.0 - - - - - - -
25/10:00am 9.6 NW 3 4 1016.9 - 0.0 - - - - - - -
25/09:30am 8.0 NW 4 6 1017.0 - 0.0 - - - - - - -
25/09:00am 6.7 NW 3 6 1017.1 - 0.0 - - - - - - -
25/08:30am 5.8 NNW 4 6 1017.1 - 0.0 - - - - - - -
25/08:00am 4.2 NNW 4 5 1017.1 - 0.0 - - - - - - -
25/07:30am 4.4 NNW 6 9 1016.9 - 0.0 - - - - - - -
25/07:00am 5.2 NNW 6 8 1016.9 - 0.0 - - - - - - -
25/06:30am 5.2 NNW 7 8 1016.5 - 0.0 - - - - - - -
25/06:00am 5.6 NNW 7 9 1016.3 - 0.0 - - - - - - -
25/05:30am 5.3 NNW 5 8 1016.2 - 0.0 - - - - - - -
25/05:00am 5.7 NNW 7 10 1016.1 - 0.0 - - - - - - -
25/04:30am 5.5 NNW 6 8 1015.9 - 0.0 - - - - - - -
25/04:00am 5.5 NNW 4 6 1016.1 - 0.0 - - - - - - -
25/03:30am 6.0 NW 3 5 1016.2 - 0.0 - - - - - - -
25/03:00am 6.5 NNW 3 4 1016.3 - 0.0 - - - - - - -
25/02:30am 6.9 N 3 4 1016.3 - 0.0 - - - - - - -
25/02:00am 6.8 NW 2 3 1016.6 - 0.0 - - - - - - -
25/01:30am 7.3 N 2 2 1016.4 - 0.0 - - - - - - -
25/01:00am 7.5 N 2 2 1016.5 - 0.0 - - - - - - -
25/12:30am 8.1 N 3 5 1016.6 - 0.0 - - - - - - -
25/12:00am 8.1 N 3 4 1016.9 - 0.0 - - - - - - -
 
Date/Time
EST
Temp
°C
Wind Pressure Rain since
9am
mm
Weather Cloud Vis
km
Sea
Height
m
Swell
Dir  Spd
kts
Gust
kts
hPa Trend Height
m
Period
s
Dir
24/11:30pm 8.1 N 4 7 1017.1 - 0.0 - - - - - - -
24/11:00pm 7.9 N 4 4 1017.5 - 0.0 - - - - - - -
24/10:30pm 8.0 N 4 6 1017.5 - 0.0 - - - - - - -
24/10:00pm 7.5 NNW 3 5 1017.7 - 0.0 - - - - - - -
24/09:30pm 8.0 NNW 4 5 1017.7 - 0.0 - - - - - - -
24/09:00pm 7.6 NW 4 5 1017.7 - 0.0 - - - - - - -
24/08:30pm 8.1 NW 4 6 1017.6 - 0.0 - - - - - - -
24/08:00pm 8.2 NW 4 5 1017.6 - 0.0 - - - - - - -
24/07:30pm 7.5 NNW 4 5 1017.4 - 0.0 - - - - - - -
24/07:00pm 8.2 NNW 3 5 1017.3 - 0.0 - - - - - - -
24/06:30pm 7.8 NNW 3 4 1017.0 - 0.0 - - - - - - -
24/06:00pm 7.5 NNW 2 3 1016.8 - 0.0 - - - - - - -
24/05:30pm 8.1 N 3 3 1016.6 - 0.0 - - - - - - -
24/05:00pm 8.8 N 3 3 1016.5 - 0.0 - - - - - - -
24/04:30pm 10.5 W 2 3 1016.2 - 0.0 - - - - - - -
24/04:00pm 10.2 W 3 6 1016.3 - 0.0 - - - - - - -
24/03:30pm 11.6 W 4 7 1016.1 - 0.0 - - - - - - -
24/03:00pm 11.2 WNW 3 5 1016.1 - 0.0 - - - - - - -
24/02:30pm 10.1 W 4 5 1016.1 - 0.0 - - - - - - -
24/02:00pm 10.7 WSW 6 11 1016.3 - 0.0 - - - - - - -
24/01:30pm 10.9 W 4 7 1016.2 - 0.0 - - - - - - -
24/01:00pm 10.8 W 8 13 1016.6 - 0.0 - - - - - - -
24/12:30pm 11.3 W 7 12 1016.5 - 0.0 - - - - - - -
24/12:00pm 11.1 WNW 8 11 1016.9 - 0.0 - - - - - - -
24/11:30am 10.6 W 8 13 1017.2 - 0.0 - - - - - - -
24/11:00am 10.7 W 9 12 1017.7 - 0.0 - - - - - - -
24/10:30am 10.1 W 10 14 1017.7 - 0.0 - - - - - - -
24/10:00am 10.1 WNW 6 11 1017.7 - 0.0 - - - - - - -
24/09:30am 9.4 WNW 6 9 1017.4 - 0.0 - - - - - - -
24/09:00am 8.9 WNW 6 10 1017.1 - 0.4 - - - - - - -
24/08:30am 8.8 WNW 5 9 1016.9 - 0.4 - - - - - - -
24/08:00am 8.4 WNW 5 10 1016.6 - 0.4 - - - - - - -
24/07:30am 8.6 WNW 6 9 1016.0 - 0.4 - - - - - - -
24/07:00am 8.6 W 7 11 1015.9 - 0.4 - - - - - - -
24/06:30am 8.4 W 5 8 1015.2 - 0.4 - - - - - - -
24/06:00am 8.5 W 7 10 1014.6 - 0.4 - - - - - - -
24/05:30am 8.3 WNW 6 9 1014.3 - 0.4 - - - - - - -
24/05:00am 8.5 WNW 6 9 1013.9 - 0.4 - - - - - - -
24/04:30am 8.7 WNW 5 8 1013.7 - 0.4 - - - - - - -
24/04:00am 8.9 W 6 10 1013.7 - 0.4 - - - - - - -
24/03:30am 9.5 WSW 8 16 1013.5 - 0.0 - - - - - - -
24/03:00am 10.6 W 4 6 1013.0 - 0.0 - - - - - - -
24/02:30am 11.5 WSW 7 11 1012.6 - 0.0 - - - - - - -
24/02:00am 11.7 W 4 6 1012.4 - 0.0 - - - - - - -
24/01:30am 12.3 WNW 5 9 1011.8 - 0.0 - - - - - - -
24/01:00am 12.2 NW 6 9 1011.4 - 0.0 - - - - - - -
24/12:30am 12.0 NW 7 12 1011.5 - 0.0 - - - - - - -
24/12:00am 12.2 NW 9 16 1011.7 - 0.0 - - - - - - -
 
Date/Time
EST
Temp
°C
Wind Pressure Rain since
9am
mm
Weather Cloud Vis
km
Sea
Height
m
Swell
Dir  Spd
kts
Gust
kts
hPa Trend Height
m
Period
s
Dir
23/11:30pm 11.4 NW 6 9 1011.7 - 0.0 - - - - - - -
23/11:00pm 11.8 NW 6 9 1011.7 - 0.0 - - - - - - -
23/10:30pm 11.9 NW 8 14 1011.6 - 0.0 - - - - - - -
23/10:00pm 12.0 NNW 8 14 1011.7 - 0.0 - - - - - - -
23/09:30pm 12.4 NNW 9 13 1011.8 - 0.0 - - - - - - -
23/09:00pm 12.5 NW 8 13 1012.1 - 0.0 - - - - - - -
23/08:30pm 12.6 NW 8 12 1012.2 - 0.0 - - - - - - -
23/08:00pm 12.1 NW 6 11 1012.1 - 0.0 - - - - - - -
23/07:30pm 12.0 NNW 6 9 1012.0 - 0.0 - - - - - - -
23/07:00pm 12.5 NNW 7 10 1011.9 - 0.0 - - - - - - -
23/06:30pm 12.4 NNW 7 11 1012.0 - 0.0 - - - - - - -
23/06:00pm 12.1 NNW 5 11 1011.9 - 0.0 - - - - - - -
23/05:30pm 10.6 NW 4 6 1012.0 - 0.0 - - - - - - -
23/05:00pm 11.6 N 2 3 1011.9 - 0.0 - - - - - - -
23/04:30pm 13.4 N 1 1 1012.1 - 0.0 - - - - - - -
23/04:00pm 13.6 CALM 0 0 1012.2 - 0.0 - - - - - - -
23/03:30pm 14.8 WSW 3 4 1012.2 - 0.0 - - - - - - -
23/03:00pm 16.0 W 4 6 1012.6 - 0.0 - - - - - - -
23/02:30pm 15.9 W 5 9 1012.8 - 0.0 - - - - - - -
23/02:00pm 15.7 NNW 5 8 1013.1 - 0.0 - - - - - - -

Other Formats:

Comma delimited format used in spreadsheet applications
http://www.bom.gov.au/fwo/IDV60701/IDV60701.95918.axf

JavaScript Object Notation format (JSON) in row-major order
http://www.bom.gov.au/fwo/IDV60701/IDV60701.95918.json